createdAt,value
2016-09-07T00:00:39.869Z,16
2016-09-07T00:01:40.113Z,15.9
2016-09-07T00:02:39.866Z,15.84
2016-09-07T00:03:39.867Z,15.94
2016-09-07T00:04:39.869Z,15.83
2016-09-07T00:05:39.873Z,15.91
2016-09-07T00:06:39.869Z,15.83
2016-09-07T00:07:39.870Z,15.86
2016-09-07T00:08:39.869Z,15.84
2016-09-07T00:09:39.877Z,15.86
2016-09-07T00:10:39.875Z,15.84
2016-09-07T00:11:39.883Z,15.86
2016-09-07T00:12:39.879Z,15.8
2016-09-07T00:13:39.873Z,15.84
2016-09-07T00:14:39.874Z,15.83
2016-09-07T00:15:39.883Z,15.8
2016-09-07T00:16:39.882Z,15.83
2016-09-07T00:17:39.874Z,15.76
2016-09-07T00:18:39.898Z,15.79
2016-09-07T00:19:39.882Z,15.82
2016-09-07T00:20:39.883Z,15.83
2016-09-07T00:21:39.880Z,15.72
2016-09-07T00:22:39.880Z,15.77
2016-09-07T00:23:39.883Z,15.76
2016-09-07T00:24:39.882Z,15.62
2016-09-07T00:25:39.893Z,15.72
2016-09-07T00:26:39.885Z,15.7
2016-09-07T00:27:39.889Z,15.62
2016-09-07T00:28:39.883Z,15.68
2016-09-07T00:29:40.194Z,15.62
2016-09-07T00:30:39.885Z,15.54
2016-09-07T00:31:39.887Z,15.55
2016-09-07T00:32:39.887Z,15.62
2016-09-07T00:33:39.884Z,15.59
2016-09-07T00:34:40.185Z,15.64
2016-09-07T00:35:39.888Z,15.61
2016-09-07T00:36:39.903Z,15.64
2016-09-07T00:37:39.888Z,15.62
2016-09-07T00:38:39.885Z,15.54
2016-09-07T00:39:39.891Z,15.54
2016-09-07T00:40:39.895Z,15.51
2016-09-07T00:41:39.889Z,15.55
2016-09-07T00:42:39.891Z,15.51
2016-09-07T00:43:39.889Z,15.54
2016-09-07T00:44:39.890Z,15.47
2016-09-07T00:45:39.890Z,15.47
2016-09-07T00:46:39.892Z,15.44
2016-09-07T00:47:39.896Z,15.44
2016-09-07T00:48:39.890Z,15.42
2016-09-07T00:49:39.890Z,15.44
2016-09-07T00:50:39.892Z,15.46
2016-09-07T00:51:39.892Z,15.4
2016-09-07T00:52:39.893Z,15.46
2016-09-07T00:53:39.894Z,15.4
2016-09-07T00:54:39.895Z,15.47
2016-09-07T00:55:39.896Z,15.36
2016-09-07T00:56:39.893Z,15.35
2016-09-07T00:57:39.898Z,15.33
2016-09-07T00:58:39.894Z,15.36
2016-09-07T00:59:39.897Z,15.33
2016-09-07T01:00:39.896Z,15.37
2016-09-07T01:01:39.900Z,15.27
2016-09-07T01:02:40.227Z,15.25
2016-09-07T01:03:39.900Z,15.36
2016-09-07T01:04:39.898Z,15.37
2016-09-07T01:05:39.901Z,15.28
2016-09-07T01:06:39.899Z,15.36
2016-09-07T01:07:39.900Z,15.25
2016-09-07T01:08:39.899Z,15.24
2016-09-07T01:09:39.899Z,15.36
2016-09-07T01:10:39.905Z,15.28
2016-09-07T01:11:39.914Z,15.37
2016-09-07T01:12:39.901Z,15.37
2016-09-07T01:13:39.903Z,15.39
2016-09-07T01:14:40.215Z,15.24
2016-09-07T01:15:39.905Z,15.25
2016-09-07T01:16:40.216Z,15.24
2016-09-07T01:17:40.163Z,15.28
2016-09-07T01:18:39.905Z,15.31
2016-09-07T01:19:40.218Z,15.28
2016-09-07T01:20:39.904Z,15.24
2016-09-07T01:21:39.906Z,15.28
2016-09-07T01:22:39.911Z,15.28
2016-09-07T01:23:39.908Z,15.21
2016-09-07T01:24:39.917Z,15.17
2016-09-07T01:25:40.152Z,15.14
2016-09-07T01:26:39.909Z,15.17
2016-09-07T01:27:39.908Z,15.19
2016-09-07T01:28:39.909Z,15.11
2016-09-07T01:29:39.915Z,15.21
2016-09-07T01:30:39.923Z,15.11
2016-09-07T01:31:39.921Z,15.14
2016-09-07T01:32:39.913Z,15.19
2016-09-07T01:33:39.911Z,15.19
2016-09-07T01:34:40.360Z,15.15
2016-09-07T01:35:40.226Z,15.1
2016-09-07T01:36:39.911Z,15.11
2016-09-07T01:37:39.916Z,15.11
2016-09-07T01:38:39.914Z,15.11
2016-09-07T01:39:40.154Z,15.11
2016-09-07T01:40:39.919Z,15.14
2016-09-07T01:41:39.916Z,15.1
2016-09-07T01:42:39.919Z,15.04
2016-09-07T01:43:39.917Z,15.17
2016-09-07T01:44:39.923Z,15.04
2016-09-07T01:45:39.919Z,15.04
2016-09-07T01:46:39.923Z,15.06
2016-09-07T01:47:39.927Z,15.15
2016-09-07T01:48:40.170Z,15.15
2016-09-07T01:49:40.228Z,15.04
2016-09-07T01:50:39.923Z,15.1
2016-09-07T01:51:39.925Z,15.1
2016-09-07T01:52:39.919Z,14.97
2016-09-07T01:53:39.934Z,14.94
2016-09-07T01:54:39.927Z,15.03
2016-09-07T01:55:39.928Z,14.96
2016-09-07T01:56:39.928Z,15.02
2016-09-07T01:57:39.925Z,14.91
2016-09-07T01:58:39.933Z,14.92
2016-09-07T01:59:39.936Z,14.91
2016-09-07T02:00:40.228Z,14.92
2016-09-07T02:01:39.931Z,14.96
2016-09-07T02:02:39.930Z,14.91
2016-09-07T02:03:39.938Z,14.89
2016-09-07T02:04:40.233Z,14.94
2016-09-07T02:05:40.161Z,14.92
2016-09-07T02:06:39.936Z,14.84
2016-09-07T02:07:39.933Z,14.89
2016-09-07T02:08:39.934Z,14.89
2016-09-07T02:09:39.931Z,14.96
2016-09-07T02:10:39.942Z,14.91
2016-09-07T02:11:39.933Z,14.91
2016-09-07T02:12:39.936Z,14.88
2016-09-07T02:13:40.234Z,14.89
2016-09-07T02:14:39.937Z,14.85
2016-09-07T02:15:39.938Z,14.84
2016-09-07T02:16:39.934Z,14.89
2016-09-07T02:17:39.921Z,14.84
2016-09-07T02:18:39.922Z,14.86
2016-09-07T02:19:39.918Z,14.89
2016-09-07T02:20:39.918Z,14.89
2016-09-07T02:21:39.918Z,14.84
2016-09-07T02:22:39.914Z,14.72
2016-09-07T02:23:40.167Z,14.86
2016-09-07T02:24:39.915Z,14.85
2016-09-07T02:25:39.919Z,14.81
2016-09-07T02:26:39.921Z,14.73
2016-09-07T02:27:40.260Z,14.81
2016-09-07T02:28:39.919Z,14.86
2016-09-07T02:29:39.917Z,14.85
2016-09-07T02:30:39.944Z,14.73
2016-09-07T02:31:39.921Z,14.79
2016-09-07T02:32:39.920Z,14.84
2016-09-07T02:33:39.921Z,14.79
2016-09-07T02:34:39.975Z,14.81
2016-09-07T02:35:39.921Z,14.82
2016-09-07T02:36:39.920Z,14.72
2016-09-07T02:37:40.231Z,14.79
2016-09-07T02:38:39.921Z,14.78
2016-09-07T02:39:39.918Z,14.77
2016-09-07T02:40:39.921Z,14.69
2016-09-07T02:41:39.918Z,14.72
2016-09-07T02:42:39.926Z,14.72
2016-09-07T02:43:39.926Z,14.77
2016-09-07T02:44:39.927Z,14.68
2016-09-07T02:45:39.920Z,14.82
2016-09-07T02:46:39.933Z,14.73
2016-09-07T02:47:39.937Z,14.73
2016-09-07T02:48:39.919Z,14.81
2016-09-07T02:49:39.925Z,14.78
2016-09-07T02:50:39.923Z,14.78
2016-09-07T02:51:39.922Z,14.68
2016-09-07T02:52:39.956Z,14.79
2016-09-07T02:53:39.923Z,14.73
2016-09-07T02:54:39.921Z,14.68
2016-09-07T02:55:39.927Z,14.72
2016-09-07T02:56:39.927Z,14.66
2016-09-07T02:57:39.922Z,14.63
2016-09-07T02:58:40.236Z,14.68
2016-09-07T02:59:39.928Z,14.69
2016-09-07T03:00:40.423Z,14.7
2016-09-07T03:01:39.923Z,14.65
2016-09-07T03:02:39.920Z,14.59
2016-09-07T03:03:40.257Z,14.62
2016-09-07T03:04:39.927Z,14.6
2016-09-07T03:05:39.922Z,14.55
2016-09-07T03:06:39.924Z,14.58
2016-09-07T03:07:39.931Z,14.63
2016-09-07T03:08:39.927Z,14.58
2016-09-07T03:09:39.929Z,14.63
2016-09-07T03:10:39.924Z,14.62
2016-09-07T03:11:39.926Z,14.51
2016-09-07T03:12:40.240Z,14.55
2016-09-07T03:13:39.924Z,14.58
2016-09-07T03:14:39.924Z,14.44
2016-09-07T03:15:39.926Z,14.53
2016-09-07T03:16:39.926Z,14.44
2016-09-07T03:17:39.931Z,14.43
2016-09-07T03:18:39.920Z,14.45
2016-09-07T03:19:39.929Z,14.47
2016-09-07T03:20:39.921Z,14.4
2016-09-07T03:21:39.926Z,14.35
2016-09-07T03:22:39.935Z,14.45
2016-09-07T03:23:39.925Z,14.43
2016-09-07T03:24:39.925Z,14.33
2016-09-07T03:25:39.928Z,14.36
2016-09-07T03:26:39.925Z,14.41
2016-09-07T03:27:39.921Z,14.33
2016-09-07T03:28:39.923Z,14.33
2016-09-07T03:29:39.928Z,14.35
2016-09-07T03:30:40.240Z,14.41
2016-09-07T03:31:39.922Z,14.44
2016-09-07T03:32:39.923Z,14.43
2016-09-07T03:33:39.923Z,14.45
2016-09-07T03:34:40.086Z,14.41
2016-09-07T03:35:39.934Z,14.44
2016-09-07T03:36:39.925Z,14.4
2016-09-07T03:37:39.928Z,14.44
2016-09-07T03:38:39.924Z,14.51
2016-09-07T03:39:40.241Z,14.55
2016-09-07T03:40:39.920Z,14.51
2016-09-07T03:41:39.923Z,14.5
2016-09-07T03:42:39.923Z,14.53
2016-09-07T03:43:39.922Z,14.5
2016-09-07T03:44:39.922Z,14.51
2016-09-07T03:45:39.927Z,14.41
2016-09-07T03:46:39.925Z,14.48
2016-09-07T03:47:39.927Z,14.53
2016-09-07T03:48:39.926Z,14.45
2016-09-07T03:49:39.926Z,14.41
2016-09-07T03:50:39.935Z,14.41
2016-09-07T03:51:39.926Z,14.41
2016-09-07T03:52:39.927Z,14.41
2016-09-07T03:53:39.931Z,14.37
2016-09-07T03:54:39.926Z,14.41
2016-09-07T03:55:39.930Z,14.36
2016-09-07T03:56:39.929Z,14.33
2016-09-07T03:57:39.930Z,14.28
2016-09-07T03:58:39.935Z,14.35
2016-09-07T03:59:39.930Z,14.37
2016-09-07T04:00:39.930Z,14.3
2016-09-07T04:01:39.934Z,14.36
2016-09-07T04:02:39.932Z,14.32
2016-09-07T04:03:39.935Z,14.37
2016-09-07T04:04:39.933Z,14.32
2016-09-07T04:05:39.941Z,14.35
2016-09-07T04:06:39.935Z,14.3
2016-09-07T04:07:39.936Z,14.25
2016-09-07T04:08:39.935Z,14.26
2016-09-07T04:09:39.919Z,14.29
2016-09-07T04:10:39.936Z,14.3
2016-09-07T04:11:40.176Z,14.28
2016-09-07T04:12:39.920Z,14.23
2016-09-07T04:13:39.917Z,14.17
2016-09-07T04:14:39.922Z,14.32
2016-09-07T04:15:39.917Z,14.29
2016-09-07T04:16:39.922Z,14.2
2016-09-07T04:17:39.923Z,14.22
2016-09-07T04:18:39.919Z,14.3
2016-09-07T04:19:39.918Z,14.23
2016-09-07T04:20:39.944Z,14.18
2016-09-07T04:21:39.921Z,14.18
2016-09-07T04:22:39.919Z,14.2
2016-09-07T04:23:39.928Z,14.17
2016-09-07T04:24:39.917Z,14.18
2016-09-07T04:25:39.919Z,14.17
2016-09-07T04:26:39.916Z,14.15
2016-09-07T04:27:39.918Z,14.18
2016-09-07T04:28:40.234Z,14.14
2016-09-07T04:29:39.922Z,14.14
2016-09-07T04:30:39.922Z,14.14
2016-09-07T04:31:39.928Z,14.07
2016-09-07T04:32:39.922Z,14.1
2016-09-07T04:33:39.922Z,14.11
2016-09-07T04:34:40.026Z,14.15
2016-09-07T04:35:40.234Z,14.04
2016-09-07T04:36:39.925Z,14.12
2016-09-07T04:37:39.927Z,14.03
2016-09-07T04:38:39.925Z,14.11
2016-09-07T04:39:39.929Z,14.12
2016-09-07T04:40:39.978Z,14.05
2016-09-07T04:41:39.927Z,14.11
2016-09-07T04:42:39.930Z,14.12
2016-09-07T04:43:39.931Z,14.11
2016-09-07T04:44:39.916Z,14.07
2016-09-07T04:45:39.914Z,14.2
2016-09-07T04:46:39.918Z,14.2
2016-09-07T04:47:39.915Z,14.22
2016-09-07T04:48:39.911Z,14.17
2016-09-07T04:49:39.915Z,14.17
2016-09-07T04:50:39.910Z,14.2
2016-09-07T04:51:39.911Z,14.2
2016-09-07T04:52:39.918Z,14.22
2016-09-07T04:53:39.914Z,14.14
2016-09-07T04:54:39.910Z,14.22
2016-09-07T04:55:39.910Z,14.15
2016-09-07T04:56:39.911Z,14.2
2016-09-07T04:57:39.915Z,14.18
2016-09-07T04:58:39.911Z,14.18
2016-09-07T04:59:39.909Z,14.14
2016-09-07T05:00:40.162Z,14.18
2016-09-07T05:01:39.911Z,14.23
2016-09-07T05:02:39.913Z,14.18
2016-09-07T05:03:39.913Z,14.26
2016-09-07T05:04:39.911Z,14.28
2016-09-07T05:05:39.917Z,14.26
2016-09-07T05:06:39.947Z,14.35
2016-09-07T05:07:39.913Z,14.28
2016-09-07T05:08:39.911Z,14.37
2016-09-07T05:09:39.927Z,14.36
2016-09-07T05:10:39.910Z,14.4
2016-09-07T05:11:39.909Z,14.45
2016-09-07T05:12:39.924Z,14.4
2016-09-07T05:13:40.223Z,14.44
2016-09-07T05:14:39.907Z,14.41
2016-09-07T05:15:39.908Z,14.41
2016-09-07T05:16:40.235Z,14.51
2016-09-07T05:17:40.166Z,14.6
2016-09-07T05:18:39.912Z,14.58
2016-09-07T05:19:39.913Z,14.97
2016-09-07T05:20:39.909Z,15.37
2016-09-07T05:21:39.908Z,15.72
2016-09-07T05:22:39.925Z,16.09
2016-09-07T05:23:39.912Z,16.54
2016-09-07T05:24:39.911Z,16.93
2016-09-07T05:25:39.910Z,17.36
2016-09-07T05:26:39.910Z,17.67
2016-09-07T05:27:39.914Z,17.92
2016-09-07T05:28:39.912Z,18.25
2016-09-07T05:29:39.914Z,18.53
2016-09-07T05:30:39.977Z,18.71
2016-09-07T05:31:39.917Z,18.9
2016-09-07T05:32:39.923Z,19.15
2016-09-07T05:33:39.922Z,19.34
2016-09-07T05:34:39.979Z,19.41
2016-09-07T05:35:39.948Z,19.47
2016-09-07T05:36:39.933Z,19.69
2016-09-07T05:37:39.928Z,19.82
2016-09-07T05:38:39.929Z,19.85
2016-09-07T05:39:39.959Z,19.76
2016-09-07T05:40:39.935Z,19.62
2016-09-07T05:41:39.987Z,19.47
2016-09-07T05:42:40.041Z,19.21
2016-09-07T05:43:39.944Z,18.95
2016-09-07T05:44:40.672Z,18.71
2016-09-07T05:45:39.967Z,18.4
2016-09-07T05:46:39.965Z,18.23
2016-09-07T05:47:39.964Z,18.04
2016-09-07T05:48:39.965Z,17.85
2016-09-07T05:49:39.962Z,17.68
2016-09-07T05:50:39.990Z,17.64
2016-09-07T05:51:39.966Z,17.38
2016-09-07T05:52:39.966Z,17.36
2016-09-07T05:53:39.988Z,17.19
2016-09-07T05:54:39.969Z,17.15
2016-09-07T05:55:39.973Z,17.15
2016-09-07T05:56:39.972Z,17.05
2016-09-07T05:57:39.991Z,17.08
2016-09-07T05:58:39.991Z,17.06
2016-09-07T05:59:39.977Z,17.04
2016-09-07T06:00:39.989Z,16.99
2016-09-07T06:01:39.977Z,16.97
2016-09-07T06:02:39.979Z,16.9
2016-09-07T06:03:39.993Z,16.97
2016-09-07T06:04:39.980Z,16.94
2016-09-07T06:05:39.993Z,16.9
2016-09-07T06:06:40.005Z,17.02
2016-09-07T06:07:39.997Z,17.02
2016-09-07T06:08:39.996Z,17.09
2016-09-07T06:09:39.997Z,17.04
2016-09-07T06:10:39.999Z,17.15
2016-09-07T06:11:40.007Z,17.15
2016-09-07T06:12:39.997Z,17.29
2016-09-07T06:13:39.997Z,17.24
2016-09-07T06:14:40.003Z,17.31
2016-09-07T06:15:39.998Z,17.33
2016-09-07T06:16:40.014Z,17.3
2016-09-07T06:17:40.084Z,17.31
2016-09-07T06:18:40.314Z,17.38
2016-09-07T06:19:40.007Z,17.41
2016-09-07T06:20:40.005Z,17.56
2016-09-07T06:21:40.007Z,17.56
2016-09-07T06:22:40.011Z,17.59
2016-09-07T06:23:40.007Z,17.59
2016-09-07T06:24:40.011Z,17.68
2016-09-07T06:25:40.010Z,17.72
2016-09-07T06:26:40.010Z,17.78
2016-09-07T06:27:40.030Z,17.8
2016-09-07T06:28:40.010Z,17.97
2016-09-07T06:29:40.013Z,18.23
2016-09-07T06:30:40.015Z,18.66
2016-09-07T06:31:40.029Z,19.26
2016-09-07T06:32:40.021Z,19.66
2016-09-07T06:33:40.021Z,20.24
2016-09-07T06:34:40.074Z,20.65
2016-09-07T06:35:40.027Z,21.02
2016-09-07T06:36:40.029Z,20.97
2016-09-07T06:37:40.027Z,20.72
2016-09-07T06:38:40.050Z,20.51
2016-09-07T06:39:40.034Z,20.78
2016-09-07T06:40:40.053Z,21.06
2016-09-07T06:41:40.052Z,21.25
2016-09-07T06:42:40.063Z,21.58
2016-09-07T06:43:40.053Z,21.88
2016-09-07T06:44:40.306Z,22.15
2016-09-07T06:45:40.059Z,22.5
2016-09-07T06:46:40.057Z,22.78
2016-09-07T06:47:40.061Z,22.87
2016-09-07T06:48:40.069Z,22.87
2016-09-07T06:49:40.080Z,22.94
2016-09-07T06:50:40.075Z,23.09
2016-09-07T06:51:40.084Z,23.27
2016-09-07T06:52:40.101Z,23.41
2016-09-07T06:53:40.174Z,23.76
2016-09-07T06:54:40.175Z,24.01
2016-09-07T06:55:40.106Z,24.5
2016-09-07T06:56:40.097Z,24.68
2016-09-07T06:57:40.126Z,24.81
2016-09-07T06:58:40.117Z,25.06
2016-09-07T06:59:40.141Z,24.98
2016-09-07T07:00:40.119Z,24.98
2016-09-07T07:01:40.162Z,24.65
2016-09-07T07:02:40.141Z,24.36
2016-09-07T07:03:40.147Z,23.87
2016-09-07T07:04:40.147Z,23.51
2016-09-07T07:05:40.145Z,23.37
2016-09-07T07:06:40.168Z,23.17
2016-09-07T07:07:40.169Z,23.2
2016-09-07T07:08:40.170Z,22.91
2016-09-07T07:09:40.170Z,22.65
2016-09-07T07:10:40.231Z,22.59
2016-09-07T07:11:40.178Z,22.38
2016-09-07T07:12:40.187Z,22.18
2016-09-07T07:13:40.191Z,22.04
2016-09-07T07:14:40.197Z,21.85
2016-09-07T07:15:40.202Z,21.82
2016-09-07T07:16:40.208Z,21.92
2016-09-07T07:17:40.230Z,21.93
2016-09-07T07:18:40.217Z,22.07
2016-09-07T07:19:40.233Z,22.44
2016-09-07T07:20:40.261Z,22.99
2016-09-07T07:21:40.235Z,23.62
2016-09-07T07:22:40.544Z,24.17
2016-09-07T07:23:40.544Z,24.69
2016-09-07T07:24:40.238Z,25.01
2016-09-07T07:25:40.244Z,25.47
2016-09-07T07:26:40.568Z,25.65
2016-09-07T07:27:40.820Z,26.02
2016-09-07T07:28:40.265Z,26.34
2016-09-07T07:29:40.264Z,26.47
2016-09-07T07:30:40.271Z,26.52
2016-09-07T07:31:40.274Z,26.83
2016-09-07T07:32:40.279Z,27.15
2016-09-07T07:33:40.283Z,27.1
2016-09-07T07:34:40.336Z,26.75
2016-09-07T07:35:40.294Z,25.83
2016-09-07T07:36:40.330Z,25.36
2016-09-07T07:37:40.308Z,25.21
2016-09-07T07:38:40.309Z,25.04
2016-09-07T07:39:40.318Z,25.26
2016-09-07T07:40:40.324Z,25.48
2016-09-07T07:41:40.340Z,25.46
2016-09-07T07:42:40.332Z,25.68
2016-09-07T07:43:40.339Z,26.02
2016-09-07T07:44:40.348Z,26.05
2016-09-07T07:45:40.351Z,25.85
2016-09-07T07:46:40.357Z,25.53
2016-09-07T07:47:40.365Z,25.11
2016-09-07T07:48:40.380Z,24.86
2016-09-07T07:49:40.626Z,24.47
2016-09-07T07:50:40.380Z,24.17
2016-09-07T07:51:40.386Z,23.83
2016-09-07T07:52:40.387Z,23.63
2016-09-07T07:53:40.394Z,23.48
2016-09-07T07:54:40.396Z,23.12
2016-09-07T07:55:40.406Z,22.85
2016-09-07T07:56:40.407Z,22.63
2016-09-07T07:57:40.420Z,22.48
2016-09-07T07:58:40.651Z,22.26
2016-09-07T07:59:40.425Z,22.1
2016-09-07T08:00:40.428Z,22
2016-09-07T08:01:40.432Z,22
2016-09-07T08:02:40.444Z,21.88
2016-09-07T08:03:40.448Z,21.64
2016-09-07T08:04:40.448Z,21.48
2016-09-07T08:05:40.703Z,21.52
2016-09-07T08:06:40.454Z,21.6
2016-09-07T08:07:40.461Z,21.58
2016-09-07T08:08:40.460Z,21.73
2016-09-07T08:09:40.469Z,21.8
2016-09-07T08:10:40.475Z,21.85
2016-09-07T08:11:40.473Z,22.11
2016-09-07T08:12:40.481Z,22.5
2016-09-07T08:13:40.723Z,22.99
2016-09-07T08:14:40.491Z,23.39
2016-09-07T08:15:40.489Z,23.61
2016-09-07T08:16:40.492Z,23.88
2016-09-07T08:17:40.496Z,24.21
2016-09-07T08:18:40.507Z,24.08
2016-09-07T08:19:40.511Z,24.06
2016-09-07T08:20:40.507Z,24.16
2016-09-07T08:21:40.515Z,24.02
2016-09-07T08:22:40.518Z,23.81
2016-09-07T08:23:40.541Z,23.56
2016-09-07T08:24:40.540Z,23.34
2016-09-07T08:25:40.543Z,23.31
2016-09-07T08:26:40.548Z,22.91
2016-09-07T08:27:40.543Z,22.76
2016-09-07T08:28:40.555Z,22.66
2016-09-07T08:29:40.553Z,22.59
2016-09-07T08:30:40.560Z,22.45
2016-09-07T08:31:40.566Z,22.47
2016-09-07T08:32:40.561Z,22.48
2016-09-07T08:33:40.576Z,22.47
2016-09-07T08:34:40.948Z,22.5
2016-09-07T08:35:40.572Z,22.41
2016-09-07T08:36:40.587Z,22.26
2016-09-07T08:37:40.583Z,22.29
2016-09-07T08:38:40.589Z,22.3
2016-09-07T08:39:40.607Z,22.14
2016-09-07T08:40:40.611Z,21.93
2016-09-07T08:41:40.614Z,21.93
2016-09-07T08:42:40.609Z,21.89
2016-09-07T08:43:40.619Z,21.77
2016-09-07T08:44:40.623Z,21.66
2016-09-07T08:45:40.622Z,21.6
2016-09-07T08:46:40.942Z,21.64
2016-09-07T08:47:40.639Z,21.61
2016-09-07T08:48:40.627Z,21.62
2016-09-07T08:49:40.630Z,21.62
2016-09-07T08:50:40.634Z,21.5
2016-09-07T08:51:40.650Z,21.55
2016-09-07T08:52:40.645Z,21.57
2016-09-07T08:53:40.716Z,21.5
2016-09-07T08:54:40.654Z,21.6
2016-09-07T08:55:40.653Z,21.61
2016-09-07T08:56:40.656Z,21.6
2016-09-07T08:57:40.656Z,21.58
2016-09-07T08:58:40.661Z,21.66
2016-09-07T08:59:40.659Z,21.8
2016-09-07T09:00:40.672Z,21.91
2016-09-07T09:01:40.666Z,21.85
2016-09-07T09:02:40.678Z,21.98
2016-09-07T09:03:40.686Z,21.95
2016-09-07T09:04:40.929Z,21.89
2016-09-07T09:05:40.680Z,22.04
2016-09-07T09:06:40.686Z,22.07
2016-09-07T09:07:40.693Z,22.25
2016-09-07T09:08:40.699Z,22.36
2016-09-07T09:09:40.696Z,22.32
2016-09-07T09:10:40.695Z,22.48
2016-09-07T09:11:40.703Z,22.47
2016-09-07T09:12:40.705Z,22.65
2016-09-07T09:13:40.714Z,22.63
2016-09-07T09:14:40.741Z,22.83
2016-09-07T09:15:40.741Z,22.9
2016-09-07T09:16:40.759Z,22.81
2016-09-07T09:17:40.739Z,22.65
2016-09-07T09:18:40.745Z,22.69
2016-09-07T09:19:40.740Z,22.66
2016-09-07T09:20:40.740Z,22.81
2016-09-07T09:21:40.758Z,22.73
2016-09-07T09:22:40.741Z,22.7
2016-09-07T09:23:40.751Z,22.66
2016-09-07T09:24:40.761Z,22.48
2016-09-07T09:25:40.754Z,22.32
2016-09-07T09:26:40.758Z,22.32
2016-09-07T09:27:40.775Z,22.44
2016-09-07T09:28:40.773Z,22.51
2016-09-07T09:29:40.769Z,22.6
2016-09-07T09:30:40.789Z,22.65
2016-09-07T09:31:40.789Z,22.87
2016-09-07T09:32:40.819Z,22.83
2016-09-07T09:33:40.793Z,22.98
2016-09-07T09:34:41.060Z,22.93
2016-09-07T09:35:40.810Z,22.96
2016-09-07T09:36:40.808Z,22.81
2016-09-07T09:37:40.810Z,22.73
2016-09-07T09:38:40.811Z,22.8
2016-09-07T09:39:40.812Z,22.85
2016-09-07T09:40:40.890Z,22.98
2016-09-07T09:41:40.825Z,22.98
2016-09-07T09:42:41.063Z,22.9
2016-09-07T09:43:40.842Z,22.91
2016-09-07T09:44:40.828Z,22.63
2016-09-07T09:45:40.832Z,22.62
2016-09-07T09:46:40.837Z,22.59
2016-09-07T09:47:40.841Z,22.69
2016-09-07T09:48:40.854Z,22.63
2016-09-07T09:49:40.856Z,22.83
2016-09-07T09:50:40.859Z,22.84
2016-09-07T09:51:40.868Z,22.91
2016-09-07T09:52:40.861Z,22.98
2016-09-07T09:53:41.180Z,23.12
2016-09-07T09:54:40.863Z,23.1
2016-09-07T09:55:40.879Z,23.03
2016-09-07T09:56:40.875Z,23.08
2016-09-07T09:57:40.879Z,23.09
2016-09-07T09:58:40.882Z,23.13
2016-09-07T09:59:40.889Z,23.02
2016-09-07T10:00:40.891Z,23.1
2016-09-07T10:01:41.219Z,23.1
2016-09-07T10:02:40.903Z,23.05
2016-09-07T10:03:40.903Z,23.02
2016-09-07T10:04:40.908Z,22.91
2016-09-07T10:05:40.910Z,22.8
2016-09-07T10:06:40.918Z,22.85
2016-09-07T10:07:40.917Z,22.83
2016-09-07T10:08:40.932Z,22.84
2016-09-07T10:09:40.936Z,22.84
2016-09-07T10:10:40.935Z,22.72
2016-09-07T10:11:40.938Z,22.76
2016-09-07T10:12:40.947Z,22.83
2016-09-07T10:13:40.949Z,22.7
2016-09-07T10:14:41.259Z,22.7
2016-09-07T10:15:40.951Z,22.78
2016-09-07T10:16:40.952Z,22.78
2016-09-07T10:17:40.959Z,22.8
2016-09-07T10:18:40.962Z,22.87
2016-09-07T10:19:40.968Z,22.87
2016-09-07T10:20:40.987Z,22.99
2016-09-07T10:21:40.975Z,23.13
2016-09-07T10:22:40.988Z,23.2
2016-09-07T10:23:40.989Z,23.21
2016-09-07T10:24:41.002Z,23.28
2016-09-07T10:25:41.004Z,23.44
2016-09-07T10:26:41.002Z,23.48
2016-09-07T10:27:41.317Z,23.56
2016-09-07T10:28:41.016Z,23.59
2016-09-07T10:29:41.007Z,23.62
2016-09-07T10:30:41.025Z,23.61
2016-09-07T10:31:41.023Z,23.76
2016-09-07T10:32:41.020Z,23.77
2016-09-07T10:33:41.270Z,23.8
2016-09-07T10:34:41.077Z,23.77
2016-09-07T10:35:41.033Z,23.88
2016-09-07T10:36:41.041Z,23.81
2016-09-07T10:37:41.054Z,23.76
2016-09-07T10:38:41.056Z,23.69
2016-09-07T10:39:41.053Z,23.78
2016-09-07T10:40:41.055Z,23.65
2016-09-07T10:41:41.061Z,23.68
2016-09-07T10:42:41.064Z,23.62
2016-09-07T10:43:41.076Z,23.59
2016-09-07T10:44:41.073Z,23.63
2016-09-07T10:45:41.074Z,23.66
2016-09-07T10:46:41.094Z,23.68
2016-09-07T10:47:41.087Z,23.76
2016-09-07T10:48:41.094Z,23.8
2016-09-07T10:49:41.105Z,23.8
2016-09-07T10:50:41.106Z,23.76
2016-09-07T10:51:41.108Z,23.8
2016-09-07T10:52:41.106Z,23.77
2016-09-07T10:53:41.111Z,23.8
2016-09-07T10:54:41.365Z,23.63
2016-09-07T10:55:41.116Z,23.81
2016-09-07T10:56:41.119Z,23.78
2016-09-07T10:57:41.136Z,23.76
2016-09-07T10:58:41.131Z,23.58
2016-09-07T10:59:41.136Z,23.56
2016-09-07T11:00:41.451Z,23.58
2016-09-07T11:01:41.145Z,23.58
2016-09-07T11:02:41.152Z,23.56
2016-09-07T11:03:41.153Z,23.5
2016-09-07T11:04:41.155Z,23.58
2016-09-07T11:05:41.159Z,23.56
2016-09-07T11:06:41.206Z,23.61
2016-09-07T11:07:41.175Z,23.61
2016-09-07T11:08:41.173Z,23.58
2016-09-07T11:09:41.175Z,23.48
2016-09-07T11:10:41.177Z,23.41
2016-09-07T11:11:41.199Z,23.46
2016-09-07T11:12:41.191Z,23.47
2016-09-07T11:13:41.201Z,23.54
2016-09-07T11:14:41.200Z,23.46
2016-09-07T11:15:41.203Z,23.44
2016-09-07T11:16:41.214Z,23.44
2016-09-07T11:17:41.216Z,23.54
2016-09-07T11:18:41.213Z,23.51
2016-09-07T11:19:41.218Z,23.41
2016-09-07T11:20:41.221Z,23.47
2016-09-07T11:21:41.222Z,23.39
2016-09-07T11:22:41.235Z,23.41
2016-09-07T11:23:41.234Z,23.39
2016-09-07T11:24:41.241Z,23.39
2016-09-07T11:25:41.239Z,23.41
2016-09-07T11:26:41.251Z,23.41
2016-09-07T11:27:41.260Z,23.43
2016-09-07T11:28:41.261Z,23.48
2016-09-07T11:29:41.266Z,23.47
2016-09-07T11:30:41.257Z,23.55
2016-09-07T11:31:41.263Z,23.59
2016-09-07T11:32:41.268Z,23.62
2016-09-07T11:33:41.275Z,23.68
2016-09-07T11:34:41.640Z,23.71
2016-09-07T11:35:41.284Z,23.69
2016-09-07T11:36:41.284Z,23.73
2016-09-07T11:37:41.287Z,23.78
2016-09-07T11:38:41.295Z,23.71
2016-09-07T11:39:41.299Z,23.71
2016-09-07T11:40:41.305Z,23.78
2016-09-07T11:41:41.299Z,23.68
2016-09-07T11:42:41.318Z,23.54
2016-09-07T11:43:41.317Z,23.54
2016-09-07T11:44:41.319Z,23.55
2016-09-07T11:45:41.321Z,23.63
2016-09-07T11:46:41.321Z,23.62
2016-09-07T11:47:41.326Z,23.78
2016-09-07T11:48:41.331Z,23.61
2016-09-07T11:49:41.340Z,23.77
2016-09-07T11:50:41.343Z,23.74
2016-09-07T11:51:41.340Z,23.63
2016-09-07T11:52:41.346Z,23.62
2016-09-07T11:53:41.348Z,23.56
2016-09-07T11:54:41.371Z,23.58
2016-09-07T11:55:41.364Z,23.58
2016-09-07T11:56:41.376Z,23.61
2016-09-07T11:57:41.384Z,23.69
2016-09-07T11:58:41.375Z,23.63
2016-09-07T11:59:41.379Z,23.77
2016-09-07T12:00:41.386Z,23.92
2016-09-07T12:01:41.386Z,23.91
2016-09-07T12:02:41.387Z,23.92
2016-09-07T12:03:41.394Z,24.02
2016-09-07T12:04:41.401Z,24.02
2016-09-07T12:05:41.401Z,24.02
2016-09-07T12:06:41.406Z,24.01
2016-09-07T12:07:41.404Z,24.05
2016-09-07T12:08:41.412Z,24.08
2016-09-07T12:09:41.414Z,24.08
2016-09-07T12:10:41.501Z,24.05
2016-09-07T12:11:41.427Z,24.01
2016-09-07T12:12:41.429Z,23.87
2016-09-07T12:13:41.428Z,23.87
2016-09-07T12:14:41.435Z,23.8
2016-09-07T12:15:41.439Z,23.78
2016-09-07T12:16:41.445Z,23.86
2016-09-07T12:17:41.450Z,23.87
2016-09-07T12:18:41.466Z,23.96
2016-09-07T12:19:41.468Z,23.98
2016-09-07T12:20:41.456Z,23.98
2016-09-07T12:21:41.464Z,23.93
2016-09-07T12:22:41.470Z,23.99
2016-09-07T12:23:41.470Z,24.01
2016-09-07T12:24:41.475Z,23.99
2016-09-07T12:25:41.479Z,24.03
2016-09-07T12:26:41.488Z,24.02
2016-09-07T12:27:41.487Z,23.96
2016-09-07T12:28:41.494Z,23.87
2016-09-07T12:29:41.497Z,23.76
2016-09-07T12:30:41.499Z,23.78
2016-09-07T12:31:41.502Z,23.8
2016-09-07T12:32:41.507Z,23.84
2016-09-07T12:33:41.679Z,23.88
2016-09-07T12:34:41.819Z,23.88
2016-09-07T12:35:41.517Z,23.91
2016-09-07T12:36:41.528Z,23.83
2016-09-07T12:37:41.531Z,23.93
2016-09-07T12:38:41.534Z,24.01
2016-09-07T12:39:41.543Z,24.02
2016-09-07T12:40:41.543Z,24.03
2016-09-07T12:41:41.547Z,24.1
2016-09-07T12:42:41.546Z,24.06
2016-09-07T12:43:41.550Z,24.13
2016-09-07T12:44:41.550Z,24.18
2016-09-07T12:45:41.570Z,24.21
2016-09-07T12:46:41.561Z,24.3
2016-09-07T12:47:41.568Z,24.35
2016-09-07T12:48:41.569Z,24.4
2016-09-07T12:49:41.574Z,24.4
2016-09-07T12:50:41.582Z,24.4
2016-09-07T12:51:41.575Z,24.39
2016-09-07T12:52:41.897Z,24.47
2016-09-07T12:53:41.583Z,24.48
2016-09-07T12:54:41.601Z,24.51
2016-09-07T12:55:41.612Z,24.53